sensor_id;sensor_type;location;lat;lon;timestamp;temperature;humidity
546;DHT22;259;53.304;9.816;2024-03-23T00:53:16;19.50;76.10
546;DHT22;259;53.304;9.816;2024-03-23T00:55:43;19.50;76.10
546;DHT22;259;53.304;9.816;2024-03-23T00:58:09;19.40;76.10
546;DHT22;259;53.304;9.816;2024-03-23T01:00:34;19.40;76.10
546;DHT22;259;53.304;9.816;2024-03-23T01:03:00;19.40;76.20
546;DHT22;259;53.304;9.816;2024-03-23T01:05:26;19.40;76.30
546;DHT22;259;53.304;9.816;2024-03-23T01:07:52;19.30;76.10
546;DHT22;259;53.304;9.816;2024-03-23T01:10:17;19.30;76.30
546;DHT22;259;53.304;9.816;2024-03-23T01:12:43;19.30;76.10
546;DHT22;259;53.304;9.816;2024-03-23T01:15:09;19.20;76.30
546;DHT22;259;53.304;9.816;2024-03-23T01:17:34;19.20;76.20
546;DHT22;259;53.304;9.816;2024-03-23T01:20:00;19.20;76.20
546;DHT22;259;53.304;9.816;2024-03-23T01:22:26;19.20;76.50
546;DHT22;259;53.304;9.816;2024-03-23T01:24:51;19.10;76.30
546;DHT22;259;53.304;9.816;2024-03-23T01:27:17;19.10;76.40
546;DHT22;259;53.304;9.816;2024-03-23T01:29:43;19.00;76.50
546;DHT22;259;53.304;9.816;2024-03-23T01:32:09;19.00;76.60
546;DHT22;259;53.304;9.816;2024-03-23T01:34:35;19.00;76.80
546;DHT22;259;53.304;9.816;2024-03-23T01:37:00;19.00;76.80
546;DHT22;259;53.304;9.816;2024-03-23T01:39:26;18.90;76.70
546;DHT22;259;53.304;9.816;2024-03-23T01:41:52;18.90;76.90
546;DHT22;259;53.304;9.816;2024-03-23T01:44:17;18.90;77.00
546;DHT22;259;53.304;9.816;2024-03-23T01:46:44;18.80;76.80
546;DHT22;259;53.304;9.816;2024-03-23T01:49:10;18.80;77.00
546;DHT22;259;53.304;9.816;2024-03-23T01:51:36;18.80;77.10
546;DHT22;259;53.304;9.816;2024-03-23T01:54:03;18.70;77.10
546;DHT22;259;53.304;9.816;2024-03-23T01:56:33;18.70;77.00
546;DHT22;259;53.304;9.816;2024-03-23T01:59:09;18.70;77.20
546;DHT22;259;53.304;9.816;2024-03-23T02:01:35;18.70;77.20
546;DHT22;259;53.304;9.816;2024-03-23T02:04:04;18.60;77.30
546;DHT22;259;53.304;9.816;2024-03-23T02:06:30;18.60;77.30
546;DHT22;259;53.304;9.816;2024-03-23T02:08:56;18.60;77.40
546;DHT22;259;53.304;9.816;2024-03-23T02:11:22;18.60;77.40
546;DHT22;259;53.304;9.816;2024-03-23T02:13:47;18.60;77.30
546;DHT22;259;53.304;9.816;2024-03-23T02:16:13;18.50;77.40
546;DHT22;259;53.304;9.816;2024-03-23T02:18:39;18.50;77.40
546;DHT22;259;53.304;9.816;2024-03-23T02:21:04;18.50;77.50
546;DHT22;259;53.304;9.816;2024-03-23T02:23:30;18.40;77.60
546;DHT22;259;53.304;9.816;2024-03-23T02:25:56;18.40;77.50
546;DHT22;259;53.304;9.816;2024-03-23T02:28:22;18.40;77.80
546;DHT22;259;53.304;9.816;2024-03-23T02:30:50;18.40;77.70
546;DHT22;259;53.304;9.816;2024-03-23T02:33:16;18.30;77.70
546;DHT22;259;53.304;9.816;2024-03-23T02:35:45;18.30;77.70
546;DHT22;259;53.304;9.816;2024-03-23T02:38:12;18.30;77.90
546;DHT22;259;53.304;9.816;2024-03-23T02:40:37;18.30;78.00
546;DHT22;259;53.304;9.816;2024-03-23T02:43:03;18.20;77.90
546;DHT22;259;53.304;9.816;2024-03-23T02:45:30;18.20;78.00
546;DHT22;259;53.304;9.816;2024-03-23T02:47:55;18.20;78.20
546;DHT22;259;53.304;9.816;2024-03-23T02:50:22;18.20;78.00
546;DHT22;259;53.304;9.816;2024-03-23T02:52:48;18.10;78.00
546;DHT22;259;53.304;9.816;2024-03-23T02:55:14;18.10;78.10
546;DHT22;259;53.304;9.816;2024-03-23T02:57:41;18.10;78.20
546;DHT22;259;53.304;9.816;2024-03-23T03:00:07;18.00;78.30
546;DHT22;259;53.304;9.816;2024-03-23T03:02:34;18.00;78.40
546;DHT22;259;53.304;9.816;2024-03-23T03:05:00;18.00;78.50
546;DHT22;259;53.304;9.816;2024-03-23T03:07:25;18.00;78.60
546;DHT22;259;53.304;9.816;2024-03-23T03:09:51;17.90;78.60
546;DHT22;259;53.304;9.816;2024-03-23T03:12:17;17.90;78.60
546;DHT22;259;53.304;9.816;2024-03-23T03:14:42;17.90;78.70
546;DHT22;259;53.304;9.816;2024-03-23T03:17:08;17.90;78.80
546;DHT22;259;53.304;9.816;2024-03-23T03:19:34;17.80;78.70
546;DHT22;259;53.304;9.816;2024-03-23T03:22:00;17.80;78.60
546;DHT22;259;53.304;9.816;2024-03-23T03:24:25;17.80;78.90
546;DHT22;259;53.304;9.816;2024-03-23T03:26:51;17.70;78.80
546;DHT22;259;53.304;9.816;2024-03-23T03:29:16;17.70;78.80
546;DHT22;259;53.304;9.816;2024-03-23T03:31:43;17.70;78.80
546;DHT22;259;53.304;9.816;2024-03-23T03:34:09;17.70;79.00
546;DHT22;259;53.304;9.816;2024-03-23T03:36:34;17.70;79.90
546;DHT22;259;53.304;9.816;2024-03-23T03:39:00;17.60;79.00
546;DHT22;259;53.304;9.816;2024-03-23T03:41:28;17.60;79.10
546;DHT22;259;53.304;9.816;2024-03-23T03:43:54;17.60;79.10
546;DHT22;259;53.304;9.816;2024-03-23T03:46:20;17.60;79.20
546;DHT22;259;53.304;9.816;2024-03-23T03:48:46;17.50;79.30
546;DHT22;259;53.304;9.816;2024-03-23T03:51:13;17.50;79.20
546;DHT22;259;53.304;9.816;2024-03-23T03:53:39;17.50;79.30
546;DHT22;259;53.304;9.816;2024-03-23T03:56:05;17.50;79.30
546;DHT22;259;53.304;9.816;2024-03-23T03:58:30;17.50;79.40
546;DHT22;259;53.304;9.816;2024-03-23T04:00:56;17.50;79.30
546;DHT22;259;53.304;9.816;2024-03-23T04:03:21;17.40;79.10
546;DHT22;259;53.304;9.816;2024-03-23T04:05:54;17.40;79.20
546;DHT22;259;53.304;9.816;2024-03-23T04:08:20;17.40;79.30
546;DHT22;259;53.304;9.816;2024-03-23T04:10:46;17.40;79.40
546;DHT22;259;53.304;9.816;2024-03-23T04:13:12;17.40;79.40
546;DHT22;259;53.304;9.816;2024-03-23T04:15:39;17.40;79.40
546;DHT22;259;53.304;9.816;2024-03-23T04:18:05;17.40;79.40
546;DHT22;259;53.304;9.816;2024-03-23T04:20:30;17.30;79.50
546;DHT22;259;53.304;9.816;2024-03-23T04:22:57;17.30;79.50
546;DHT22;259;53.304;9.816;2024-03-23T04:25:24;17.30;79.80
546;DHT22;259;53.304;9.816;2024-03-23T04:27:49;17.20;79.60
546;DHT22;259;53.304;9.816;2024-03-23T04:30:15;17.20;79.60
546;DHT22;259;53.304;9.816;2024-03-23T04:32:41;17.20;79.70
546;DHT22;259;53.304;9.816;2024-03-23T04:35:07;17.20;79.90
546;DHT22;259;53.304;9.816;2024-03-23T04:37:39;17.20;79.90
546;DHT22;259;53.304;9.816;2024-03-23T04:40:06;17.10;79.90
546;DHT22;259;53.304;9.816;2024-03-23T04:42:33;17.10;79.80
546;DHT22;259;53.304;9.816;2024-03-23T04:44:59;17.00;79.90
546;DHT22;259;53.304;9.816;2024-03-23T04:47:25;17.10;80.10
546;DHT22;259;53.304;9.816;2024-03-23T04:49:51;17.00;80.00
546;DHT22;259;53.304;9.816;2024-03-23T04:52:17;17.00;80.10
546;DHT22;259;53.304;9.816;2024-03-23T04:54:43;17.00;80.10
546;DHT22;259;53.304;9.816;2024-03-23T04:57:09;17.00;80.20
546;DHT22;259;53.304;9.816;2024-03-23T04:59:35;16.90;80.10
546;DHT22;259;53.304;9.816;2024-03-23T05:02:00;16.90;80.20
546;DHT22;259;53.304;9.816;2024-03-23T05:04:27;16.90;80.10
546;DHT22;259;53.304;9.816;2024-03-23T05:06:52;16.90;80.30
546;DHT22;259;53.304;9.816;2024-03-23T05:09:18;16.80;80.30
546;DHT22;259;53.304;9.816;2024-03-23T05:11:45;16.80;80.20
546;DHT22;259;53.304;9.816;2024-03-23T05:14:13;16.80;80.40
546;DHT22;259;53.304;9.816;2024-03-23T05:16:39;16.80;80.60
546;DHT22;259;53.304;9.816;2024-03-23T05:19:05;16.80;81.20
546;DHT22;259;53.304;9.816;2024-03-23T05:21:31;16.70;80.20
546;DHT22;259;53.304;9.816;2024-03-23T05:23:57;16.70;80.40
546;DHT22;259;53.304;9.816;2024-03-23T05:26:23;16.70;80.50
546;DHT22;259;53.304;9.816;2024-03-23T05:28:48;15.80;79.40
546;DHT22;259;53.304;9.816;2024-03-23T05:31:28;16.70;80.60
546;DHT22;259;53.304;9.816;2024-03-23T05:33:54;16.60;80.40
546;DHT22;259;53.304;9.816;2024-03-23T05:36:20;16.60;80.50
546;DHT22;259;53.304;9.816;2024-03-23T05:38:47;16.60;80.60
546;DHT22;259;53.304;9.816;2024-03-23T05:41:13;16.50;80.50
546;DHT22;259;53.304;9.816;2024-03-23T05:43:39;16.50;80.60
546;DHT22;259;53.304;9.816;2024-03-23T05:46:04;16.50;80.80
546;DHT22;259;53.304;9.816;2024-03-23T05:48:30;16.50;80.60
546;DHT22;259;53.304;9.816;2024-03-23T05:50:57;16.50;80.90
546;DHT22;259;53.304;9.816;2024-03-23T05:53:23;16.50;80.70
546;DHT22;259;53.304;9.816;2024-03-23T05:55:50;16.40;80.80
546;DHT22;259;53.304;9.816;2024-03-23T05:58:19;16.40;80.70
546;DHT22;259;53.304;9.816;2024-03-23T06:00:45;16.40;80.80
546;DHT22;259;53.304;9.816;2024-03-23T06:03:11;16.40;80.90
546;DHT22;259;53.304;9.816;2024-03-23T06:05:37;16.40;80.90
546;DHT22;259;53.304;9.816;2024-03-23T06:08:04;16.40;81.10
546;DHT22;259;53.304;9.816;2024-03-23T06:10:30;16.40;81.00
546;DHT22;259;53.304;9.816;2024-03-23T06:12:57;16.40;81.10
546;DHT22;259;53.304;9.816;2024-03-23T06:15:24;16.40;81.00
546;DHT22;259;53.304;9.816;2024-03-23T06:17:49;16.30;80.90
546;DHT22;259;53.304;9.816;2024-03-23T06:20:15;16.30;81.00
546;DHT22;259;53.304;9.816;2024-03-23T06:22:41;16.30;81.00
546;DHT22;259;53.304;9.816;2024-03-23T06:25:07;16.30;81.20
546;DHT22;259;53.304;9.816;2024-03-23T06:27:33;16.30;81.10
546;DHT22;259;53.304;9.816;2024-03-23T06:30:01;16.20;80.90
546;DHT22;259;53.304;9.816;2024-03-23T06:32:30;16.20;81.10
546;DHT22;259;53.304;9.816;2024-03-23T06:34:56;16.20;81.20
546;DHT22;259;53.304;9.816;2024-03-23T06:37:21;16.20;81.00
546;DHT22;259;53.304;9.816;2024-03-23T06:39:47;16.20;81.20
546;DHT22;259;53.304;9.816;2024-03-23T06:42:13;16.20;81.30
546;DHT22;259;53.304;9.816;2024-03-23T06:44:39;16.10;81.20
546;DHT22;259;53.304;9.816;2024-03-23T06:47:05;16.10;81.30
546;DHT22;259;53.304;9.816;2024-03-23T06:49:30;16.10;81.30
546;DHT22;259;53.304;9.816;2024-03-23T06:51:56;16.10;81.20
546;DHT22;259;53.304;9.816;2024-03-23T06:54:22;16.10;81.40
546;DHT22;259;53.304;9.816;2024-03-23T06:56:47;16.00;81.20
546;DHT22;259;53.304;9.816;2024-03-23T06:59:13;16.00;81.20
546;DHT22;259;53.304;9.816;2024-03-23T07:01:39;16.00;81.40
546;DHT22;259;53.304;9.816;2024-03-23T07:04:04;16.00;81.40
546;DHT22;259;53.304;9.816;2024-03-23T07:06:31;16.00;81.40
546;DHT22;259;53.304;9.816;2024-03-23T07:08:57;15.90;81.30
546;DHT22;259;53.304;9.816;2024-03-23T07:11:23;15.90;81.40
546;DHT22;259;53.304;9.816;2024-03-23T07:13:50;16.00;81.60
546;DHT22;259;53.304;9.816;2024-03-23T07:16:16;15.90;81.50
546;DHT22;259;53.304;9.816;2024-03-23T07:18:42;15.90;81.50
546;DHT22;259;53.304;9.816;2024-03-23T07:21:08;15.80;81.40
546;DHT22;259;53.304;9.816;2024-03-23T07:23:33;15.80;81.60
546;DHT22;259;53.304;9.816;2024-03-23T07:26:04;15.80;81.70
546;DHT22;259;53.304;9.816;2024-03-23T07:28:33;15.80;81.60
546;DHT22;259;53.304;9.816;2024-03-23T07:31:09;15.80;81.70
546;DHT22;259;53.304;9.816;2024-03-23T07:33:37;15.80;81.80
546;DHT22;259;53.304;9.816;2024-03-23T07:36:06;15.80;81.60
546;DHT22;259;53.304;9.816;2024-03-23T07:38:32;15.70;81.80
546;DHT22;259;53.304;9.816;2024-03-23T07:41:08;15.70;81.80
546;DHT22;259;53.304;9.816;2024-03-23T07:43:35;15.70;81.70
546;DHT22;259;53.304;9.816;2024-03-23T07:46:02;15.70;82.60
546;DHT22;259;53.304;9.816;2024-03-23T07:48:31;15.70;81.90
546;DHT22;259;53.304;9.816;2024-03-23T07:51:07;15.70;82.00
546;DHT22;259;53.304;9.816;2024-03-23T07:53:37;15.60;82.00
546;DHT22;259;53.304;9.816;2024-03-23T07:56:06;15.60;81.90
546;DHT22;259;53.304;9.816;2024-03-23T07:58:34;15.60;82.00
546;DHT22;259;53.304;9.816;2024-03-23T08:01:10;15.60;82.00
546;DHT22;259;53.304;9.816;2024-03-23T08:03:38;15.60;82.00
546;DHT22;259;53.304;9.816;2024-03-23T08:06:10;15.60;81.90
546;DHT22;259;53.304;9.816;2024-03-23T08:08:38;15.60;82.00
546;DHT22;259;53.304;9.816;2024-03-23T08:11:04;15.50;82.10
546;DHT22;259;53.304;9.816;2024-03-23T08:13:31;15.50;82.00
546;DHT22;259;53.304;9.816;2024-03-23T08:16:00;15.50;82.00
546;DHT22;259;53.304;9.816;2024-03-23T08:18:27;15.50;82.10
546;DHT22;259;53.304;9.816;2024-03-23T08:20:57;15.50;82.10
546;DHT22;259;53.304;9.816;2024-03-23T08:23:24;15.50;82.30
546;DHT22;259;53.304;9.816;2024-03-23T08:25:57;15.40;82.10
546;DHT22;259;53.304;9.816;2024-03-23T08:28:24;15.50;82.20
546;DHT22;259;53.304;9.816;2024-03-23T08:30:50;15.40;81.90
546;DHT22;259;53.304;9.816;2024-03-23T08:33:16;15.40;81.90
546;DHT22;259;53.304;9.816;2024-03-23T08:35:42;15.40;81.80
546;DHT22;259;53.304;9.816;2024-03-23T08:38:08;15.50;81.80
546;DHT22;259;53.304;9.816;2024-03-23T08:40:33;15.50;81.80
546;DHT22;259;53.304;9.816;2024-03-23T08:42:59;15.50;81.70
546;DHT22;259;53.304;9.816;2024-03-23T08:45:25;15.50;81.80
546;DHT22;259;53.304;9.816;2024-03-23T08:47:51;15.50;81.90
546;DHT22;259;53.304;9.816;2024-03-23T08:50:17;15.40;82.10
546;DHT22;259;53.304;9.816;2024-03-23T08:52:43;15.40;82.20
546;DHT22;259;53.304;9.816;2024-03-23T08:55:09;15.40;81.80
546;DHT22;259;53.304;9.816;2024-03-23T08:57:35;15.40;81.70
546;DHT22;259;53.304;9.816;2024-03-23T09:00:02;15.40;82.00
546;DHT22;259;53.304;9.816;2024-03-23T09:02:28;15.40;82.00
546;DHT22;259;53.304;9.816;2024-03-23T09:04:53;15.40;82.00
546;DHT22;259;53.304;9.816;2024-03-23T09:07:19;15.40;82.10
546;DHT22;259;53.304;9.816;2024-03-23T09:09:45;15.30;82.00
546;DHT22;259;53.304;9.816;2024-03-23T09:12:10;15.30;82.10
546;DHT22;259;53.304;9.816;2024-03-23T09:14:36;15.30;82.10
546;DHT22;259;53.304;9.816;2024-03-23T09:17:02;15.30;82.30
546;DHT22;259;53.304;9.816;2024-03-23T09:19:29;15.20;82.10
546;DHT22;259;53.304;9.816;2024-03-23T09:24:21;15.20;81.40
546;DHT22;259;53.304;9.816;2024-03-23T09:26:46;15.20;82.20
546;DHT22;259;53.304;9.816;2024-03-23T09:29:12;15.20;82.30
546;DHT22;259;53.304;9.816;2024-03-23T09:31:39;15.20;82.40
546;DHT22;259;53.304;9.816;2024-03-23T09:34:06;15.20;82.40
546;DHT22;259;53.304;9.816;2024-03-23T09:36:31;15.20;82.40
546;DHT22;259;53.304;9.816;2024-03-23T09:38:57;15.20;82.30
546;DHT22;259;53.304;9.816;2024-03-23T09:41:23;15.20;82.50
546;DHT22;259;53.304;9.816;2024-03-23T09:43:52;15.20;82.80
546;DHT22;259;53.304;9.816;2024-03-23T09:46:18;15.20;82.80
546;DHT22;259;53.304;9.816;2024-03-23T09:48:46;15.10;82.70
546;DHT22;259;53.304;9.816;2024-03-23T09:51:12;15.10;82.70
546;DHT22;259;53.304;9.816;2024-03-23T09:53:38;15.10;82.80
546;DHT22;259;53.304;9.816;2024-03-23T09:56:04;15.10;82.90
546;DHT22;259;53.304;9.816;2024-03-23T09:58:30;15.10;83.10
546;DHT22;259;53.304;9.816;2024-03-23T10:00:57;15.10;83.00
546;DHT22;259;53.304;9.816;2024-03-23T10:03:23;15.10;83.10
546;DHT22;259;53.304;9.816;2024-03-23T10:06:00;15.00;83.10
546;DHT22;259;53.304;9.816;2024-03-23T10:08:29;15.00;83.10
546;DHT22;259;53.304;9.816;2024-03-23T10:10:55;15.00;82.80
546;DHT22;259;53.304;9.816;2024-03-23T10:13:25;15.00;83.00
546;DHT22;259;53.304;9.816;2024-03-23T10:15:58;15.00;83.00
546;DHT22;259;53.304;9.816;2024-03-23T10:18:24;15.00;83.20
546;DHT22;259;53.304;9.816;2024-03-23T10:21:07;15.00;83.20
546;DHT22;259;53.304;9.816;2024-03-23T10:23:35;15.00;83.20
546;DHT22;259;53.304;9.816;2024-03-23T10:26:25;15.00;83.30
546;DHT22;259;53.304;9.816;2024-03-23T10:28:58;15.00;83.20
546;DHT22;259;53.304;9.816;2024-03-23T10:31:33;15.00;83.30
546;DHT22;259;53.304;9.816;2024-03-23T10:34:03;15.00;83.40
546;DHT22;259;53.304;9.816;2024-03-23T10:36:29;15.00;83.50
546;DHT22;259;53.304;9.816;2024-03-23T10:38:56;14.90;83.30
546;DHT22;259;53.304;9.816;2024-03-23T10:41:29;14.90;83.50
546;DHT22;259;53.304;9.816;2024-03-23T10:43:58;14.90;83.50
546;DHT22;259;53.304;9.816;2024-03-23T10:46:24;14.90;83.40
546;DHT22;259;53.304;9.816;2024-03-23T10:48:50;14.90;83.40
546;DHT22;259;53.304;9.816;2024-03-23T10:51:16;14.90;83.40
546;DHT22;259;53.304;9.816;2024-03-23T10:53:41;14.90;83.40
546;DHT22;259;53.304;9.816;2024-03-23T10:56:08;14.90;83.60
546;DHT22;259;53.304;9.816;2024-03-23T10:58:40;14.90;83.40
546;DHT22;259;53.304;9.816;2024-03-23T11:01:11;14.90;83.20
546;DHT22;259;53.304;9.816;2024-03-23T11:03:39;14.90;83.20
546;DHT22;259;53.304;9.816;2024-03-23T11:06:06;15.00;83.30
546;DHT22;259;53.304;9.816;2024-03-23T11:08:37;15.00;83.10
546;DHT22;259;53.304;9.816;2024-03-23T11:11:21;15.10;82.60
546;DHT22;259;53.304;9.816;2024-03-23T11:13:52;15.20;82.00
546;DHT22;259;53.304;9.816;2024-03-23T11:16:28;15.20;81.80
546;DHT22;259;53.304;9.816;2024-03-23T11:19:35;15.30;82.10
546;DHT22;259;53.304;9.816;2024-03-23T11:22:02;15.20;81.70
546;DHT22;259;53.304;9.816;2024-03-23T11:24:29;15.30;81.90
546;DHT22;259;53.304;9.816;2024-03-23T11:26:54;15.30;81.80
546;DHT22;259;53.304;9.816;2024-03-23T11:29:20;15.30;82.50
546;DHT22;259;53.304;9.816;2024-03-23T11:31:49;15.30;81.50
546;DHT22;259;53.304;9.816;2024-03-23T11:34:17;15.30;81.80
546;DHT22;259;53.304;9.816;2024-03-23T11:36:43;15.20;81.80
546;DHT22;259;53.304;9.816;2024-03-23T11:39:17;15.20;81.80
546;DHT22;259;53.304;9.816;2024-03-23T11:44:17;15.20;81.70
546;DHT22;259;53.304;9.816;2024-03-23T11:46:44;15.20;81.70
546;DHT22;259;53.304;9.816;2024-03-23T11:49:25;15.30;81.70
546;DHT22;259;53.304;9.816;2024-03-23T11:51:54;15.30;81.70
546;DHT22;259;53.304;9.816;2024-03-23T11:54:22;15.30;81.70
546;DHT22;259;53.304;9.816;2024-03-23T11:57:07;15.30;81.80
546;DHT22;259;53.304;9.816;2024-03-23T12:02:13;15.30;81.70
546;DHT22;259;53.304;9.816;2024-03-23T12:04:40;15.30;81.80
546;DHT22;259;53.304;9.816;2024-03-23T12:07:16;15.30;81.80
546;DHT22;259;53.304;9.816;2024-03-23T12:09:46;15.30;81.90
546;DHT22;259;53.304;9.816;2024-03-23T12:12:32;15.30;81.80
546;DHT22;259;53.304;9.816;2024-03-23T12:15:06;15.30;82.00
546;DHT22;259;53.304;9.816;2024-03-23T12:17:34;15.30;82.10
546;DHT22;259;53.304;9.816;2024-03-23T12:20:00;15.30;82.10
546;DHT22;259;53.304;9.816;2024-03-23T12:24:54;15.30;81.70
546;DHT22;259;53.304;9.816;2024-03-23T12:27:20;15.30;82.50
546;DHT22;259;53.304;9.816;2024-03-23T12:29:46;15.20;82.50
546;DHT22;259;53.304;9.816;2024-03-23T12:32:13;15.20;82.70
546;DHT22;259;53.304;9.816;2024-03-23T12:34:39;15.20;82.70
546;DHT22;259;53.304;9.816;2024-03-23T12:37:05;15.20;83.00
546;DHT22;259;53.304;9.816;2024-03-23T12:39:31;15.10;83.10
546;DHT22;259;53.304;9.816;2024-03-23T12:41:57;15.10;83.00
546;DHT22;259;53.304;9.816;2024-03-23T12:44:23;15.10;83.20
546;DHT22;259;53.304;9.816;2024-03-23T12:46:49;15.10;83.00
546;DHT22;259;53.304;9.816;2024-03-23T12:49:14;15.10;83.20
546;DHT22;259;53.304;9.816;2024-03-23T12:51:48;15.00;83.30
546;DHT22;259;53.304;9.816;2024-03-23T12:54:19;15.00;83.60
546;DHT22;259;53.304;9.816;2024-03-23T12:56:46;15.00;83.70
546;DHT22;259;53.304;9.816;2024-03-23T12:59:11;15.00;83.80
546;DHT22;259;53.304;9.816;2024-03-23T13:01:38;15.00;83.90
546;DHT22;259;53.304;9.816;2024-03-23T13:04:04;15.00;83.90
546;DHT22;259;53.304;9.816;2024-03-23T13:06:30;15.00;83.80
546;DHT22;259;53.304;9.816;2024-03-23T13:09:02;15.20;83.80
546;DHT22;259;53.304;9.816;2024-03-23T13:11:31;15.20;83.70
546;DHT22;259;53.304;9.816;2024-03-23T13:13:56;15.20;83.00
546;DHT22;259;53.304;9.816;2024-03-23T13:16:22;15.20;83.00
546;DHT22;259;53.304;9.816;2024-03-23T13:18:48;15.20;83.10
546;DHT22;259;53.304;9.816;2024-03-23T13:21:13;15.20;83.30
546;DHT22;259;53.304;9.816;2024-03-23T13:23:39;15.20;82.90
546;DHT22;259;53.304;9.816;2024-03-23T13:26:07;15.30;83.60
546;DHT22;259;53.304;9.816;2024-03-23T13:28:33;15.30;83.40
546;DHT22;259;53.304;9.816;2024-03-23T13:31:00;15.40;83.70
546;DHT22;259;53.304;9.816;2024-03-23T13:33:30;15.40;83.60
546;DHT22;259;53.304;9.816;2024-03-23T13:35:57;15.30;83.10
546;DHT22;259;53.304;9.816;2024-03-23T13:38:23;15.30;82.70
546;DHT22;259;53.304;9.816;2024-03-23T13:40:56;15.30;82.30
546;DHT22;259;53.304;9.816;2024-03-23T13:43:25;15.30;81.80
546;DHT22;259;53.304;9.816;2024-03-23T13:45:58;15.30;81.40
546;DHT22;259;53.304;9.816;2024-03-23T13:48:27;15.20;80.80
546;DHT22;259;53.304;9.816;2024-03-23T13:53:23;15.30;80.00
546;DHT22;259;53.304;9.816;2024-03-23T13:55:49;15.30;79.60
546;DHT22;259;53.304;9.816;2024-03-23T13:58:15;15.30;79.80
546;DHT22;259;53.304;9.816;2024-03-23T14:00:42;15.30;79.10
546;DHT22;259;53.304;9.816;2024-03-23T14:03:11;15.40;78.50
546;DHT22;259;53.304;9.816;2024-03-23T14:05:38;15.40;78.00
546;DHT22;259;53.304;9.816;2024-03-23T14:08:05;15.40;78.10
546;DHT22;259;53.304;9.816;2024-03-23T14:10:32;15.40;78.30
546;DHT22;259;53.304;9.816;2024-03-23T14:12:58;15.50;78.90
546;DHT22;259;53.304;9.816;2024-03-23T14:15:26;15.50;79.70
546;DHT22;259;53.304;9.816;2024-03-23T14:17:52;15.60;79.20
546;DHT22;259;53.304;9.816;2024-03-23T14:20:18;15.60;79.20
546;DHT22;259;53.304;9.816;2024-03-23T14:22:43;15.60;79.10
546;DHT22;259;53.304;9.816;2024-03-23T14:25:09;15.70;79.10
546;DHT22;259;53.304;9.816;2024-03-23T14:27:35;15.80;79.20
546;DHT22;259;53.304;9.816;2024-03-23T14:30:04;15.80;79.10
546;DHT22;259;53.304;9.816;2024-03-23T14:32:30;15.80;79.10
546;DHT22;259;53.304;9.816;2024-03-23T14:35:00;15.80;79.20
546;DHT22;259;53.304;9.816;2024-03-23T14:37:26;15.80;79.00
546;DHT22;259;53.304;9.816;2024-03-23T14:39:52;15.80;79.20
546;DHT22;259;53.304;9.816;2024-03-23T14:42:18;15.80;78.80
546;DHT22;259;53.304;9.816;2024-03-23T14:44:44;15.80;78.80
546;DHT22;259;53.304;9.816;2024-03-23T14:47:09;15.80;78.90
546;DHT22;259;53.304;9.816;2024-03-23T14:49:35;15.80;78.90
546;DHT22;259;53.304;9.816;2024-03-23T14:52:01;15.80;79.50
546;DHT22;259;53.304;9.816;2024-03-23T14:54:27;15.80;79.40
546;DHT22;259;53.304;9.816;2024-03-23T14:56:53;15.80;79.30
546;DHT22;259;53.304;9.816;2024-03-23T14:59:18;15.80;79.30
546;DHT22;259;53.304;9.816;2024-03-23T15:01:45;15.80;79.30
546;DHT22;259;53.304;9.816;2024-03-23T15:04:10;15.90;79.90
546;DHT22;259;53.304;9.816;2024-03-23T15:06:36;15.90;80.10
546;DHT22;259;53.304;9.816;2024-03-23T15:09:02;15.90;80.10
546;DHT22;259;53.304;9.816;2024-03-23T15:11:32;16.00;80.10
546;DHT22;259;53.304;9.816;2024-03-23T15:13:58;15.90;79.80
546;DHT22;259;53.304;9.816;2024-03-23T15:16:24;15.90;79.70
546;DHT22;259;53.304;9.816;2024-03-23T15:18:49;15.90;79.60
546;DHT22;259;53.304;9.816;2024-03-23T15:21:15;15.90;79.60
546;DHT22;259;53.304;9.816;2024-03-23T15:23:45;15.90;79.40
546;DHT22;259;53.304;9.816;2024-03-23T15:26:11;16.00;79.70
546;DHT22;259;53.304;9.816;2024-03-23T15:28:37;16.00;79.90
546;DHT22;259;53.304;9.816;2024-03-23T15:31:25;16.00;79.80
546;DHT22;259;53.304;9.816;2024-03-23T15:33:51;16.00;79.80
546;DHT22;259;53.304;9.816;2024-03-23T15:36:17;16.00;79.90
546;DHT22;259;53.304;9.816;2024-03-23T15:38:43;16.00;79.80
546;DHT22;259;53.304;9.816;2024-03-23T15:41:10;16.10;79.90
546;DHT22;259;53.304;9.816;2024-03-23T15:43:36;16.00;79.70
546;DHT22;259;53.304;9.816;2024-03-23T15:46:05;16.00;79.60
546;DHT22;259;53.304;9.816;2024-03-23T15:48:32;16.00;79.70
546;DHT22;259;53.304;9.816;2024-03-23T15:50:59;16.00;79.70
546;DHT22;259;53.304;9.816;2024-03-23T15:53:28;15.90;79.70
546;DHT22;259;53.304;9.816;2024-03-23T15:56:03;15.90;79.80
546;DHT22;259;53.304;9.816;2024-03-23T15:58:31;15.80;79.80
546;DHT22;259;53.304;9.816;2024-03-23T16:00:59;15.80;79.80
546;DHT22;259;53.304;9.816;2024-03-23T16:03:32;15.80;79.90
546;DHT22;259;53.304;9.816;2024-03-23T16:05:59;15.80;80.00
546;DHT22;259;53.304;9.816;2024-03-23T16:08:26;15.80;80.00
546;DHT22;259;53.304;9.816;2024-03-23T16:10:53;15.70;79.90
546;DHT22;259;53.304;9.816;2024-03-23T16:13:20;15.70;80.00
546;DHT22;259;53.304;9.816;2024-03-23T16:15:54;15.70;80.00
546;DHT22;259;53.304;9.816;2024-03-23T16:18:20;15.70;80.10
546;DHT22;259;53.304;9.816;2024-03-23T16:23:19;15.60;80.00
546;DHT22;259;53.304;9.816;2024-03-23T16:25:49;15.60;79.90
546;DHT22;259;53.304;9.816;2024-03-23T16:28:22;15.60;80.00
546;DHT22;259;53.304;9.816;2024-03-23T16:30:57;15.60;80.00
546;DHT22;259;53.304;9.816;2024-03-23T16:33:24;15.60;80.00
546;DHT22;259;53.304;9.816;2024-03-23T16:38:27;15.60;80.10
546;DHT22;259;53.304;9.816;2024-03-23T16:40:57;15.50;80.00
546;DHT22;259;53.304;9.816;2024-03-23T16:43:24;15.50;80.00
546;DHT22;259;53.304;9.816;2024-03-23T16:45:58;15.50;80.20
546;DHT22;259;53.304;9.816;2024-03-23T16:48:26;15.50;80.30
546;DHT22;259;53.304;9.816;2024-03-23T16:50:55;15.50;80.30
546;DHT22;259;53.304;9.816;2024-03-23T16:53:22;15.50;80.40
546;DHT22;259;53.304;9.816;2024-03-23T16:55:55;15.40;80.30
546;DHT22;259;53.304;9.816;2024-03-23T16:58:23;15.40;80.30
546;DHT22;259;53.304;9.816;2024-03-23T17:00:49;15.40;80.30
546;DHT22;259;53.304;9.816;2024-03-23T17:03:15;15.40;80.40
546;DHT22;259;53.304;9.816;2024-03-23T17:05:41;15.40;80.30
546;DHT22;259;53.304;9.816;2024-03-23T17:08:08;15.40;80.30
546;DHT22;259;53.304;9.816;2024-03-23T17:10:34;15.30;80.20
546;DHT22;259;53.304;9.816;2024-03-23T17:13:00;15.30;80.20
546;DHT22;259;53.304;9.816;2024-03-23T17:15:26;15.30;80.30
546;DHT22;259;53.304;9.816;2024-03-23T17:17:51;15.30;80.20
546;DHT22;259;53.304;9.816;2024-03-23T17:20:18;15.30;80.20
546;DHT22;259;53.304;9.816;2024-03-23T17:22:44;15.30;80.30
546;DHT22;259;53.304;9.816;2024-03-23T17:25:10;15.30;80.30
546;DHT22;259;53.304;9.816;2024-03-23T17:27:37;15.30;80.30
546;DHT22;259;53.304;9.816;2024-03-23T17:30:03;15.30;80.20
546;DHT22;259;53.304;9.816;2024-03-23T17:32:29;15.20;80.20
546;DHT22;259;53.304;9.816;2024-03-23T17:34:56;15.20;80.20
546;DHT22;259;53.304;9.816;2024-03-23T17:37:22;15.20;80.10
546;DHT22;259;53.304;9.816;2024-03-23T17:39:48;15.20;80.10
546;DHT22;259;53.304;9.816;2024-03-23T17:42:14;15.20;80.20
546;DHT22;259;53.304;9.816;2024-03-23T17:44:40;15.20;80.20